createdAt,value
2023-01-13T00:01:47.675Z,84.47
2023-01-13T00:04:14.725Z,83.32
2023-01-13T00:06:41.779Z,83.03
2023-01-13T00:09:08.829Z,82.95
2023-01-13T00:11:35.790Z,83.78
2023-01-13T00:14:02.910Z,84.23
2023-01-13T00:16:29.897Z,85.19
2023-01-13T00:18:56.912Z,84.30
2023-01-13T00:21:24.587Z,83.49
2023-01-13T00:23:52.858Z,82.88
2023-01-13T00:26:24.410Z,83.44
2023-01-13T00:28:51.546Z,84.46
2023-01-13T00:31:19.996Z,84.99
2023-01-13T00:33:49.232Z,85.38
2023-01-13T00:36:16.303Z,84.02
2023-01-13T00:38:43.741Z,83.19
2023-01-13T00:41:12.821Z,83.26
2023-01-13T00:43:39.883Z,83.30
2023-01-13T00:46:08.503Z,83.79
2023-01-13T00:48:35.631Z,84.24
2023-01-13T00:51:03.369Z,83.52
2023-01-13T00:53:33.692Z,82.42
2023-01-13T00:56:09.789Z,81.82
2023-01-13T00:58:36.902Z,81.95
2023-01-13T01:01:05.934Z,82.71
2023-01-13T01:03:33.582Z,83.32
2023-01-13T01:06:05.724Z,83.92
2023-01-13T01:08:32.869Z,83.88
2023-01-13T01:11:03.849Z,82.75
2023-01-13T01:13:30.859Z,81.73
2023-01-13T01:15:58.335Z,81.05
2023-01-13T01:18:25.477Z,81.88
2023-01-13T01:20:52.503Z,82.52
2023-01-13T01:23:19.480Z,83.11
2023-01-13T01:25:46.504Z,83.81
2023-01-13T01:28:13.648Z,83.37
2023-01-13T01:30:40.597Z,81.98
2023-01-13T01:33:07.636Z,81.39
2023-01-13T01:35:34.616Z,81.65
2023-01-13T01:38:01.639Z,82.41
2023-01-13T01:40:28.680Z,83.40
2023-01-13T01:43:14.673Z,84.04
2023-01-13T01:45:41.734Z,83.08
2023-01-13T01:48:08.863Z,81.52
2023-01-13T01:50:35.847Z,81.38
2023-01-13T01:53:10.249Z,81.74
2023-01-13T01:55:37.289Z,82.20
2023-01-13T01:58:27.672Z,82.89
2023-01-13T02:00:54.862Z,83.31
2023-01-13T02:03:21.988Z,82.37
2023-01-13T02:05:49.020Z,81.61
2023-01-13T02:08:15.998Z,81.43
2023-01-13T02:10:43.018Z,81.96
2023-01-13T02:13:10.986Z,82.48
2023-01-13T02:15:56.359Z,83.11
2023-01-13T02:18:32.726Z,81.91
2023-01-13T02:21:03.147Z,81.22
2023-01-13T02:24:08.506Z,80.84
2023-01-13T02:27:21.008Z,81.76
2023-01-13T02:30:25.933Z,82.12
2023-01-13T02:33:02.403Z,83.06
2023-01-13T02:36:02.010Z,82.59
2023-01-13T02:38:32.271Z,81.07
2023-01-13T02:41:34.819Z,80.77
2023-01-13T02:44:10.800Z,81.02
2023-01-13T02:46:49.081Z,81.77
2023-01-13T02:49:31.692Z,82.54
2023-01-13T02:52:02.772Z,82.58
2023-01-13T02:54:29.887Z,81.42
2023-01-13T02:56:56.962Z,80.22
2023-01-13T02:59:26.439Z,80.40
2023-01-13T03:01:56.272Z,80.82
2023-01-13T03:04:47.154Z,81.53
2023-01-13T03:07:42.563Z,82.38
2023-01-13T03:10:34.080Z,82.72
2023-01-13T03:13:11.981Z,81.65
2023-01-13T03:15:49.483Z,80.60
2023-01-13T03:18:21.589Z,80.32
2023-01-13T03:20:55.784Z,80.70
2023-01-13T03:23:28.261Z,81.36
2023-01-13T03:26:15.458Z,82.21
2023-01-13T03:29:15.262Z,82.83
2023-01-13T03:32:01.310Z,81.48
2023-01-13T03:34:37.412Z,80.68
2023-01-13T03:37:05.950Z,80.76
2023-01-13T03:39:34.792Z,81.36
2023-01-13T03:42:05.011Z,81.90
2023-01-13T03:44:55.524Z,82.64
2023-01-13T03:47:27.880Z,83.03
2023-01-13T03:50:07.318Z,82.28
2023-01-13T03:52:40.513Z,80.91
2023-01-13T03:55:13.490Z,80.63
2023-01-13T03:57:44.802Z,80.73
2023-01-13T04:00:12.682Z,81.18
2023-01-13T04:02:48.043Z,81.85
2023-01-13T04:05:14.938Z,82.35
2023-01-13T04:08:01.760Z,82.35
2023-01-13T04:10:31.441Z,80.96
2023-01-13T04:13:09.240Z,80.53
2023-01-13T04:15:40.603Z,80.86
2023-01-13T04:18:17.958Z,81.55
2023-01-13T04:20:46.048Z,82.20
2023-01-13T04:23:13.988Z,82.54
2023-01-13T04:25:41.936Z,81.59
2023-01-13T04:28:09.744Z,80.61
2023-01-13T04:30:36.962Z,80.64
2023-01-13T04:33:05.483Z,80.83
2023-01-13T04:35:33.128Z,81.67
2023-01-13T04:38:10.710Z,82.27
2023-01-13T04:40:37.755Z,83.02
2023-01-13T04:43:04.940Z,82.27
2023-01-13T04:45:31.948Z,80.35
2023-01-13T04:47:59.012Z,80.02
2023-01-13T04:50:26.142Z,80.33
2023-01-13T04:52:53.808Z,80.96
2023-01-13T04:55:22.078Z,82.09
2023-01-13T04:57:49.015Z,82.45
2023-01-13T05:00:17.623Z,81.32
2023-01-13T05:02:44.658Z,80.39
2023-01-13T05:05:11.562Z,80.62
2023-01-13T05:07:38.461Z,81.07
2023-01-13T05:10:06.215Z,82.27
2023-01-13T05:12:52.411Z,82.79
2023-01-13T05:15:38.181Z,82.12
2023-01-13T05:18:05.284Z,81.23
2023-01-13T05:20:32.187Z,81.34
2023-01-13T05:23:18.011Z,81.75
2023-01-13T05:25:45.230Z,82.52
2023-01-13T05:28:12.231Z,83.20
2023-01-13T05:30:44.149Z,82.95
2023-01-13T05:33:11.893Z,81.54
2023-01-13T05:35:39.959Z,81.15
2023-01-13T05:38:07.022Z,81.30
2023-01-13T05:40:52.792Z,82.11
2023-01-13T05:43:21.162Z,82.93
2023-01-13T05:45:49.000Z,83.01
2023-01-13T05:48:16.397Z,81.64
2023-01-13T05:50:43.547Z,80.81
2023-01-13T05:53:10.466Z,81.02
2023-01-13T05:55:43.970Z,81.41
2023-01-13T05:58:12.154Z,82.40
2023-01-13T06:00:41.695Z,82.91
2023-01-13T06:03:08.938Z,82.28
2023-01-13T06:05:36.343Z,80.71
2023-01-13T06:08:03.928Z,79.97
2023-01-13T06:10:30.981Z,80.35
2023-01-13T06:12:58.033Z,81.11
2023-01-13T06:15:25.068Z,81.68
2023-01-13T06:17:52.145Z,82.45
2023-01-13T06:20:19.085Z,81.74
2023-01-13T06:22:48.161Z,80.97
2023-01-13T06:25:35.926Z,80.50
2023-01-13T06:28:02.898Z,81.52
2023-01-13T06:30:31.637Z,82.33
2023-01-13T06:32:59.713Z,82.66
2023-01-13T06:35:29.805Z,81.74
2023-01-13T06:37:56.965Z,80.83
2023-01-13T06:40:24.051Z,80.74
2023-01-13T06:43:10.008Z,81.43
2023-01-13T06:45:37.046Z,82.03
2023-01-13T06:48:04.384Z,82.83
2023-01-13T06:50:31.397Z,81.72
2023-01-13T06:52:58.516Z,80.82
2023-01-13T06:55:25.549Z,80.67
2023-01-13T06:57:56.992Z,80.79
2023-01-13T07:00:24.751Z,81.95
2023-01-13T07:02:51.898Z,82.78
2023-01-13T07:05:19.599Z,83.61
2023-01-13T07:07:46.501Z,82.92
2023-01-13T07:10:22.537Z,81.70
2023-01-13T07:13:08.461Z,81.44
2023-01-13T07:15:35.737Z,81.75
2023-01-13T07:18:02.978Z,82.89
2023-01-13T07:20:30.509Z,83.14
2023-01-13T07:22:57.592Z,82.49
2023-01-13T07:25:24.498Z,82.27
2023-01-13T07:27:51.472Z,82.11
2023-01-13T07:30:19.012Z,82.25
2023-01-13T07:32:46.020Z,83.03
2023-01-13T07:35:13.010Z,83.51
2023-01-13T07:37:40.542Z,81.85
2023-01-13T07:40:08.465Z,80.91
2023-01-13T07:42:57.081Z,80.68
2023-01-13T07:45:24.030Z,81.00
2023-01-13T07:47:52.850Z,81.68
2023-01-13T07:50:21.456Z,82.47
2023-01-13T07:52:48.397Z,81.74
2023-01-13T07:55:15.544Z,80.75
2023-01-13T07:57:42.551Z,80.63
2023-01-13T08:00:12.861Z,80.60
2023-01-13T08:02:40.355Z,81.12
2023-01-13T08:05:08.375Z,82.08
2023-01-13T08:07:35.696Z,82.47
2023-01-13T08:10:03.931Z,81.81
2023-01-13T08:12:52.964Z,81.09
2023-01-13T08:15:24.162Z,81.03
2023-01-13T08:17:51.385Z,81.32
2023-01-13T08:20:19.243Z,82.27
2023-01-13T08:22:46.384Z,82.34
2023-01-13T08:25:13.744Z,80.85
2023-01-13T08:27:40.958Z,80.22
2023-01-13T08:30:08.736Z,80.22
2023-01-13T08:32:35.808Z,80.80
2023-01-13T08:35:02.740Z,81.58
2023-01-13T08:37:29.790Z,81.89
2023-01-13T08:39:56.757Z,80.85
2023-01-13T08:42:23.849Z,79.45
2023-01-13T08:44:50.793Z,79.11
2023-01-13T08:47:17.764Z,79.78
2023-01-13T08:49:44.668Z,80.33
2023-01-13T08:52:11.633Z,81.09
2023-01-13T08:54:39.419Z,81.53
2023-01-13T08:57:06.460Z,80.88
2023-01-13T08:59:33.909Z,79.96
2023-01-13T09:02:01.013Z,79.57
2023-01-13T09:04:28.275Z,80.67
2023-01-13T09:06:55.239Z,81.22
2023-01-13T09:09:23.068Z,81.95
2023-01-13T09:12:09.089Z,81.42
2023-01-13T09:14:37.219Z,80.53
2023-01-13T09:17:04.147Z,80.92
2023-01-13T09:19:30.985Z,81.30
2023-01-13T09:21:57.949Z,81.71
2023-01-13T09:24:25.074Z,82.60
2023-01-13T09:26:52.005Z,80.92
2023-01-13T09:29:18.951Z,79.78
2023-01-13T09:31:45.869Z,79.32
2023-01-13T09:34:36.525Z,80.20
2023-01-13T09:37:04.312Z,81.96
2023-01-13T09:39:32.572Z,83.19
2023-01-13T09:42:22.311Z,83.35
2023-01-13T09:44:57.675Z,82.03
2023-01-13T09:47:39.137Z,82.22
2023-01-13T09:59:54.067Z,84.34
2023-01-13T10:02:39.687Z,83.45
2023-01-13T10:05:11.315Z,81.84
2023-01-13T10:07:42.143Z,81.15
2023-01-13T10:10:15.735Z,81.49
2023-01-13T10:13:01.396Z,83.11
2023-01-13T10:15:28.753Z,84.39
2023-01-13T10:18:05.268Z,83.14
2023-01-13T10:20:52.035Z,82.70
2023-01-13T10:23:38.457Z,82.43
2023-01-13T10:26:44.045Z,82.80
2023-01-13T10:29:24.953Z,83.54
2023-01-13T10:31:53.138Z,82.19
2023-01-13T10:34:21.097Z,82.35
2023-01-13T10:37:08.260Z,83.93
2023-01-13T10:39:40.477Z,84.94
2023-01-13T10:42:13.359Z,84.68
2023-01-13T10:44:53.409Z,84.99
2023-01-13T10:47:42.495Z,84.22
2023-01-13T10:50:12.644Z,84.17
2023-01-13T10:52:43.020Z,84.46
2023-01-13T10:55:31.452Z,84.91
2023-01-13T10:58:17.095Z,83.79
2023-01-13T11:00:44.109Z,82.51
2023-01-13T11:03:17.220Z,82.74
2023-01-13T11:05:50.908Z,82.99
2023-01-13T11:08:19.514Z,83.65
2023-01-13T11:10:49.557Z,83.92
2023-01-13T11:13:20.155Z,82.19
2023-01-13T11:15:54.970Z,82.31
2023-01-13T11:18:30.939Z,82.65
2023-01-13T11:20:58.189Z,83.40
2023-01-13T11:23:36.862Z,84.53
2023-01-13T11:26:10.041Z,84.41
2023-01-13T11:28:45.970Z,84.03
2023-01-13T11:31:25.964Z,84.76
2023-01-13T11:34:03.839Z,85.43
2023-01-13T11:36:37.272Z,85.70
2023-01-13T11:39:33.823Z,84.93
2023-01-13T11:42:23.803Z,84.30
2023-01-13T11:45:21.371Z,85.27
2023-01-13T11:47:51.373Z,85.82
2023-01-13T11:50:30.801Z,84.03
2023-01-13T11:53:07.207Z,83.55
2023-01-13T11:55:46.457Z,83.83
2023-01-13T11:58:49.788Z,84.74
2023-01-13T12:01:32.997Z,85.06
2023-01-13T12:04:00.600Z,83.38
2023-01-13T12:06:32.083Z,82.33
2023-01-13T12:09:09.276Z,82.36
2023-01-13T12:12:16.819Z,82.80
2023-01-13T12:15:22.183Z,84.26
2023-01-13T12:17:52.394Z,83.69
2023-01-13T12:20:30.838Z,82.68
2023-01-13T12:23:01.870Z,82.59
2023-01-13T12:25:42.328Z,82.93
2023-01-13T12:28:15.164Z,84.38
2023-01-13T12:30:44.285Z,84.69
2023-01-13T12:33:30.992Z,83.48
2023-01-13T12:36:01.231Z,83.03
2023-01-13T12:38:36.383Z,83.29
2023-01-13T12:41:15.392Z,83.82
2023-01-13T12:44:04.592Z,84.51
2023-01-13T12:46:31.537Z,84.69
2023-01-13T12:49:01.619Z,83.18
2023-01-13T12:51:55.106Z,82.99
2023-01-13T12:54:40.575Z,83.74
2023-01-13T12:57:20.838Z,84.41
2023-01-13T13:00:03.400Z,83.57
2023-01-13T13:02:34.518Z,82.71
2023-01-13T13:05:13.698Z,82.97
2023-01-13T13:07:47.627Z,83.50
2023-01-13T13:10:28.381Z,84.39
2023-01-13T13:13:16.341Z,83.74
2023-01-13T13:15:47.427Z,82.67
2023-01-13T13:18:17.749Z,82.84
2023-01-13T13:21:08.175Z,83.24
2023-01-13T13:23:56.619Z,83.98
2023-01-13T13:26:37.594Z,84.53
2023-01-13T13:29:27.892Z,83.22
2023-01-13T13:32:07.661Z,82.57
2023-01-13T13:35:12.572Z,82.71
2023-01-13T13:38:04.403Z,83.34
2023-01-13T13:40:54.141Z,84.20
2023-01-13T13:43:39.962Z,83.43
2023-01-13T13:46:41.823Z,82.56
2023-01-13T13:49:08.808Z,82.93
2023-01-13T13:51:41.137Z,83.84
2023-01-13T13:54:11.275Z,84.57
2023-01-13T13:56:42.389Z,84.26
2023-01-13T13:59:15.170Z,84.06
2023-01-13T14:01:43.730Z,84.20
2023-01-13T14:04:12.492Z,84.70
2023-01-13T14:06:50.405Z,85.20
2023-01-13T14:09:18.784Z,85.39
2023-01-13T14:12:00.688Z,84.41
2023-01-13T14:14:27.939Z,84.50
2023-01-13T14:16:58.161Z,84.95
2023-01-13T14:19:33.704Z,85.43
2023-01-13T14:22:02.200Z,84.44
2023-01-13T14:24:30.262Z,84.03
2023-01-13T14:27:14.022Z,84.70
2023-01-13T14:29:40.705Z,85.26
2023-01-13T14:32:07.748Z,86.05
2023-01-13T14:34:35.000Z,84.78
2023-01-13T14:37:25.979Z,83.79
2023-01-13T14:39:54.124Z,84.12
2023-01-13T14:42:21.660Z,84.35
2023-01-13T14:44:50.232Z,84.92
2023-01-13T14:47:26.418Z,85.55
2023-01-13T14:50:07.073Z,84.61
2023-01-13T14:52:36.050Z,84.30
2023-01-13T14:55:09.622Z,84.50
2023-01-13T14:57:40.908Z,85.42
2023-01-13T15:00:14.938Z,85.60
2023-01-13T15:02:58.110Z,84.73
2023-01-13T15:05:25.379Z,84.60
2023-01-13T15:07:53.350Z,85.21
2023-01-13T15:10:23.776Z,86.09
2023-01-13T15:12:53.815Z,85.77
2023-01-13T15:15:36.852Z,85.40
2023-01-13T15:18:12.325Z,86.49
2023-01-13T15:20:39.645Z,86.76
2023-01-13T15:23:07.019Z,87.02
2023-01-13T15:25:35.397Z,86.09
2023-01-13T15:28:03.325Z,85.40
2023-01-13T15:30:30.662Z,85.88
2023-01-13T15:32:59.343Z,86.54
2023-01-13T15:35:27.519Z,86.34
2023-01-13T15:37:55.181Z,85.61
2023-01-13T15:40:27.938Z,85.69
2023-01-13T15:43:13.633Z,86.58
2023-01-13T15:45:59.136Z,86.95
2023-01-13T15:48:27.707Z,85.65
2023-01-13T15:50:55.088Z,84.99
2023-01-13T15:53:22.519Z,85.11
2023-01-13T15:55:54.786Z,85.41
2023-01-13T15:58:28.143Z,86.38
2023-01-13T16:00:56.846Z,85.45
2023-01-13T16:03:23.976Z,84.45
2023-01-13T16:05:51.167Z,84.57
2023-01-13T16:08:21.518Z,85.78
2023-01-13T16:10:48.956Z,86.31
2023-01-13T16:13:16.801Z,86.08
2023-01-13T16:16:05.539Z,85.21
2023-01-13T16:18:32.720Z,85.57
2023-01-13T16:20:59.708Z,86.16
2023-01-13T16:23:26.730Z,87.07
2023-01-13T16:25:53.826Z,85.95
2023-01-13T16:28:23.479Z,85.36
2023-01-13T16:30:50.545Z,85.38
2023-01-13T16:33:17.965Z,86.04
2023-01-13T16:36:10.724Z,87.08
2023-01-13T16:38:32.292Z,86.68
2023-01-13T16:40:59.852Z,86.21
2023-01-13T16:43:27.507Z,86.02
2023-01-13T16:45:54.681Z,86.89
2023-01-13T16:48:24.488Z,87.09
2023-01-13T16:50:51.549Z,86.27
2023-01-13T16:53:18.587Z,85.86
2023-01-13T16:55:45.631Z,86.44
2023-01-13T16:58:19.579Z,86.99
2023-01-13T17:00:47.255Z,86.27
2023-01-13T17:03:15.358Z,85.82
2023-01-13T17:05:46.224Z,85.15
2023-01-13T17:08:20.132Z,85.36
2023-01-13T17:10:47.237Z,86.02
2023-01-13T17:13:16.772Z,85.99
2023-01-13T17:15:45.207Z,85.38
2023-01-13T17:18:12.852Z,85.29
2023-01-13T17:20:40.395Z,85.71
2023-01-13T17:23:07.734Z,86.26
2023-01-13T17:25:36.390Z,86.43
2023-01-13T17:28:03.779Z,85.40
2023-01-13T17:30:31.803Z,84.85
2023-01-13T17:32:58.918Z,85.14
2023-01-13T17:35:26.252Z,86.06
2023-01-13T17:37:54.071Z,86.20
2023-01-13T17:40:21.302Z,85.10
2023-01-13T17:42:48.553Z,84.62
2023-01-13T17:45:18.222Z,84.90
2023-01-13T17:47:47.351Z,86.12
2023-01-13T17:50:19.031Z,86.49
2023-01-13T17:52:46.225Z,85.89
2023-01-13T17:55:13.265Z,85.75
2023-01-13T17:57:40.153Z,86.01
2023-01-13T18:00:08.488Z,86.46
2023-01-13T18:02:42.108Z,85.99
2023-01-13T18:05:09.354Z,85.10
2023-01-13T18:07:36.365Z,85.66
2023-01-13T18:10:04.912Z,86.18
2023-01-13T18:12:34.256Z,87.20
2023-01-13T18:15:01.682Z,86.77
2023-01-13T18:17:29.083Z,85.92
2023-01-13T18:20:15.278Z,86.22
2023-01-13T18:23:01.282Z,86.88
2023-01-13T18:25:46.760Z,87.26
2023-01-13T18:28:13.821Z,85.94
2023-01-13T18:30:40.971Z,85.41
2023-01-13T18:33:09.630Z,85.42
2023-01-13T18:35:38.739Z,86.63
2023-01-13T18:38:06.819Z,86.61
2023-01-13T18:40:34.249Z,85.45
2023-01-13T18:43:01.598Z,85.54
2023-01-13T18:45:30.625Z,86.39
2023-01-13T18:47:59.587Z,87.43
2023-01-13T18:50:27.863Z,86.92
2023-01-13T18:52:55.020Z,86.12
2023-01-13T18:55:22.776Z,86.42
2023-01-13T18:57:51.699Z,87.67
2023-01-13T19:00:19.447Z,87.63
2023-01-13T19:11:46.877Z,87.11
2023-01-13T19:14:34.231Z,86.07
2023-01-13T19:17:09.056Z,85.40
2023-01-13T19:19:40.016Z,85.90
2023-01-13T19:22:07.523Z,86.63
2023-01-13T19:24:34.746Z,86.85
2023-01-13T19:27:02.102Z,85.64
2023-01-13T19:29:33.130Z,85.04
2023-01-13T19:32:00.910Z,85.38
2023-01-13T19:34:28.177Z,85.82
2023-01-13T19:36:56.775Z,86.44
2023-01-13T19:39:23.865Z,85.36
2023-01-13T19:42:09.881Z,84.50
2023-01-13T19:44:55.668Z,84.45
2023-01-13T19:47:23.124Z,85.11
2023-01-13T19:49:50.272Z,85.94
2023-01-13T19:52:17.525Z,85.60
2023-01-13T19:54:45.434Z,84.90
2023-01-13T19:57:12.744Z,85.58
2023-01-13T19:59:42.970Z,86.82
2023-01-13T20:02:28.134Z,87.08
2023-01-13T20:04:56.341Z,85.92
2023-01-13T20:07:27.563Z,85.58
2023-01-13T20:09:56.452Z,86.03
2023-01-13T20:12:24.622Z,86.89
2023-01-13T20:14:51.901Z,86.86
2023-01-13T20:17:20.046Z,85.39
2023-01-13T20:19:47.203Z,85.57
2023-01-13T20:22:14.448Z,85.80
2023-01-13T20:24:41.510Z,86.53
2023-01-13T20:27:08.547Z,86.77
2023-01-13T20:29:35.633Z,86.72
2023-01-13T20:32:02.973Z,86.05
2023-01-13T20:34:29.884Z,86.98
2023-01-13T20:36:56.839Z,87.40
2023-01-13T20:39:26.494Z,86.84
2023-01-13T20:42:12.639Z,85.77
2023-01-13T20:44:39.836Z,85.44
2023-01-13T20:47:07.241Z,85.91
2023-01-13T20:49:36.231Z,86.93
2023-01-13T20:52:09.422Z,87.14
2023-01-13T20:54:37.333Z,86.45
2023-01-13T20:57:05.465Z,86.14
2023-01-13T20:59:32.496Z,86.05
2023-01-13T21:01:59.661Z,86.63
2023-01-13T21:04:26.722Z,86.08
2023-01-13T21:06:54.829Z,85.02
2023-01-13T21:09:23.627Z,84.34
2023-01-13T21:12:09.566Z,85.22
2023-01-13T21:14:56.271Z,86.16
2023-01-13T21:17:41.986Z,85.85
2023-01-13T21:20:10.793Z,84.46
2023-01-13T21:22:39.014Z,84.80
2023-01-13T21:25:06.804Z,85.83
2023-01-13T21:27:34.766Z,86.57
2023-01-13T21:30:01.739Z,85.84
2023-01-13T21:32:28.749Z,85.09
2023-01-13T21:34:55.683Z,85.24
2023-01-13T21:37:22.844Z,85.84
2023-01-13T21:39:49.784Z,86.71
2023-01-13T21:42:36.187Z,85.80
2023-01-13T21:45:22.514Z,84.99
2023-01-13T21:47:49.541Z,85.74
2023-01-13T21:50:18.476Z,85.99
2023-01-13T21:52:45.671Z,86.26
2023-01-13T21:55:25.325Z,85.19
2023-01-13T21:57:53.569Z,83.99
2023-01-13T22:00:22.285Z,84.14
2023-01-13T22:02:49.480Z,84.65
2023-01-13T22:05:18.146Z,86.37
2023-01-13T22:07:45.071Z,86.29
2023-01-13T22:10:17.018Z,85.22
2023-01-13T22:12:44.175Z,84.51
2023-01-13T22:15:13.091Z,85.24
2023-01-13T22:17:41.312Z,85.76
2023-01-13T22:20:10.270Z,86.19
2023-01-13T22:22:37.271Z,85.10
2023-01-13T22:25:07.146Z,84.61
2023-01-13T22:27:39.571Z,85.30
2023-01-13T22:30:13.937Z,86.21
2023-01-13T22:32:40.921Z,86.57
2023-01-13T22:35:09.083Z,85.96
2023-01-13T22:37:36.148Z,85.33
2023-01-13T22:40:04.559Z,85.48
2023-01-13T22:42:31.395Z,85.96
2023-01-13T22:44:58.205Z,86.62
2023-01-13T22:47:25.364Z,85.54
2023-01-13T22:49:52.488Z,84.51
2023-01-13T22:52:19.551Z,84.63
2023-01-13T22:54:46.598Z,84.89
2023-01-13T22:57:13.640Z,85.79
2023-01-13T22:59:41.104Z,85.45
2023-01-13T23:02:07.960Z,84.31
2023-01-13T23:04:35.158Z,84.42
2023-01-13T23:07:02.156Z,84.79
2023-01-13T23:09:30.171Z,85.47
2023-01-13T23:11:58.595Z,85.73
2023-01-13T23:14:25.638Z,84.64
2023-01-13T23:16:52.904Z,84.04
2023-01-13T23:19:20.147Z,84.48
2023-01-13T23:21:47.133Z,85.08
2023-01-13T23:24:14.071Z,85.80
2023-01-13T23:26:40.942Z,84.67
2023-01-13T23:29:09.790Z,84.15
2023-01-13T23:31:36.806Z,84.29
2023-01-13T23:34:03.754Z,85.12
2023-01-13T23:36:31.001Z,85.69
2023-01-13T23:38:58.680Z,85.23
2023-01-13T23:41:26.166Z,84.36
2023-01-13T23:43:57.792Z,84.50
2023-01-13T23:46:24.939Z,84.94
2023-01-13T23:48:52.012Z,85.75
2023-01-13T23:51:21.116Z,86.28
2023-01-13T23:53:49.010Z,85.54
2023-01-13T23:56:20.827Z,85.50
2023-01-13T23:58:47.929Z,86.10
